createdAt,value
2022-09-02T00:01:25.137Z,100.00
2022-09-02T00:03:56.158Z,100.00
2022-09-02T00:06:24.237Z,100.00
2022-09-02T00:08:53.824Z,100.00
2022-09-02T00:11:23.829Z,100.00
2022-09-02T00:13:52.589Z,100.00
2022-09-02T00:16:23.784Z,100.00
2022-09-02T00:18:52.491Z,100.00
2022-09-02T00:21:21.546Z,100.00
2022-09-02T00:23:50.842Z,100.00
2022-09-02T00:26:20.785Z,100.00
2022-09-02T00:28:56.025Z,100.00
2022-09-02T00:31:25.547Z,100.00
2022-09-02T00:33:53.502Z,100.00
2022-09-02T00:36:21.967Z,100.00
2022-09-02T00:38:49.967Z,100.00
2022-09-02T00:41:21.657Z,100.00
2022-09-02T00:43:53.632Z,100.00
2022-09-02T00:46:24.344Z,100.00
2022-09-02T00:48:58.265Z,100.00
2022-09-02T00:51:27.602Z,100.00
2022-09-02T00:53:55.565Z,100.00
2022-09-02T00:56:29.114Z,100.00
2022-09-02T00:58:58.143Z,100.00
2022-09-02T01:01:27.257Z,100.00
2022-09-02T01:03:55.555Z,100.00
2022-09-02T01:06:27.542Z,100.00
2022-09-02T01:09:03.362Z,100.00
2022-09-02T01:11:39.454Z,100.00
2022-09-02T01:14:07.405Z,100.00
2022-09-02T01:16:42.175Z,100.00
2022-09-02T01:19:17.705Z,100.00
2022-09-02T01:21:49.495Z,100.00
2022-09-02T01:24:18.582Z,100.00
2022-09-02T01:26:46.453Z,100.00
2022-09-02T01:29:16.410Z,100.00
2022-09-02T01:31:44.289Z,100.00
2022-09-02T01:34:12.416Z,100.00
2022-09-02T01:36:42.341Z,100.00
2022-09-02T01:39:13.785Z,100.00
2022-09-02T01:41:42.070Z,100.00
2022-09-02T01:44:10.435Z,100.00
2022-09-02T01:46:38.538Z,100.00
2022-09-02T01:49:06.708Z,100.00
2022-09-02T01:51:34.553Z,100.00
2022-09-02T01:54:02.327Z,100.00
2022-09-02T01:56:31.501Z,100.00
2022-09-02T01:58:59.415Z,100.00
2022-09-02T02:01:27.336Z,100.00
2022-09-02T02:03:55.224Z,100.00
2022-09-02T02:06:24.133Z,100.00
2022-09-02T02:08:52.658Z,100.00
2022-09-02T02:11:21.271Z,100.00
2022-09-02T02:13:50.876Z,100.00
2022-09-02T02:16:18.711Z,100.00
2022-09-02T02:18:46.472Z,100.00
2022-09-02T02:21:14.259Z,100.00
2022-09-02T02:23:42.234Z,100.00
2022-09-02T02:26:10.204Z,100.00
2022-09-02T02:28:38.499Z,100.00
2022-09-02T02:31:08.053Z,100.00
2022-09-02T02:33:36.569Z,100.00
2022-09-02T02:36:05.859Z,100.00
2022-09-02T02:38:34.914Z,100.00
2022-09-02T02:41:06.296Z,100.00
2022-09-02T02:43:34.780Z,100.00
2022-09-02T02:46:02.612Z,100.00
2022-09-02T02:48:31.909Z,100.00
2022-09-02T02:50:59.690Z,100.00
2022-09-02T02:53:29.626Z,100.00
2022-09-02T02:55:57.460Z,100.00
2022-09-02T02:58:25.248Z,100.00
2022-09-02T03:00:53.565Z,100.00
2022-09-02T03:03:22.549Z,100.00
2022-09-02T03:05:52.446Z,100.00
2022-09-02T03:08:21.452Z,100.00
2022-09-02T03:10:54.488Z,100.00
2022-09-02T03:13:23.355Z,100.00
2022-09-02T03:15:51.447Z,100.00
2022-09-02T03:18:19.246Z,100.00
2022-09-02T03:20:47.195Z,100.00
2022-09-02T03:23:18.019Z,100.00
2022-09-02T03:25:46.700Z,100.00
2022-09-02T03:28:15.434Z,100.00
2022-09-02T03:30:43.593Z,100.00
2022-09-02T03:33:11.384Z,100.00
2022-09-02T03:35:41.371Z,100.00
2022-09-02T03:38:09.998Z,100.00
2022-09-02T03:40:40.234Z,100.00
2022-09-02T03:43:08.118Z,100.00
2022-09-02T03:45:36.044Z,100.00
2022-09-02T03:48:04.573Z,100.00
2022-09-02T03:50:36.454Z,100.00
2022-09-02T03:53:05.518Z,100.00
2022-09-02T03:55:33.495Z,100.00
2022-09-02T03:58:07.877Z,100.00
2022-09-02T04:00:38.324Z,100.00
2022-09-02T04:03:07.302Z,100.00
2022-09-02T04:05:35.215Z,100.00
2022-09-02T04:08:03.183Z,100.00
2022-09-02T04:10:30.998Z,100.00
2022-09-02T04:12:58.832Z,100.00
2022-09-02T04:15:28.034Z,100.00
2022-09-02T04:17:56.787Z,100.00
2022-09-02T04:20:24.516Z,100.00
2022-09-02T04:22:52.517Z,100.00
2022-09-02T04:25:20.414Z,100.00
2022-09-02T04:27:55.419Z,100.00
2022-09-02T04:30:25.258Z,100.00
2022-09-02T04:32:54.454Z,100.00
2022-09-02T04:35:22.320Z,100.00
2022-09-02T04:37:50.233Z,100.00
2022-09-02T04:40:18.086Z,100.00
2022-09-02T04:42:47.257Z,100.00
2022-09-02T04:45:15.395Z,100.00
2022-09-02T04:47:43.255Z,100.00
2022-09-02T04:50:15.049Z,100.00
2022-09-02T04:52:42.823Z,100.00
2022-09-02T04:55:11.108Z,100.00
2022-09-02T04:57:39.446Z,100.00
2022-09-02T05:00:09.686Z,100.00
2022-09-02T05:02:37.598Z,100.00
2022-09-02T05:05:05.907Z,100.00
2022-09-02T05:07:36.611Z,100.00
2022-09-02T05:10:05.794Z,100.00
2022-09-02T05:12:35.304Z,100.00
2022-09-02T05:15:03.608Z,100.00
2022-09-02T05:17:33.105Z,100.00
2022-09-02T05:20:00.946Z,100.00
2022-09-02T05:22:29.539Z,100.00
2022-09-02T05:24:58.699Z,100.00
2022-09-02T05:27:26.845Z,100.00
2022-09-02T05:29:59.532Z,100.00
2022-09-02T05:32:28.164Z,100.00
2022-09-02T05:34:56.395Z,100.00
2022-09-02T05:37:25.486Z,100.00
2022-09-02T05:39:53.753Z,100.00
2022-09-02T05:42:22.902Z,100.00
2022-09-02T05:44:50.646Z,100.00
2022-09-02T05:47:18.450Z,100.00
2022-09-02T05:49:46.290Z,100.00
2022-09-02T05:52:14.535Z,100.00
2022-09-02T05:54:42.512Z,100.00
2022-09-02T05:57:12.879Z,100.00
2022-09-02T05:59:43.224Z,100.00
2022-09-02T06:02:12.281Z,100.00
2022-09-02T06:04:40.905Z,100.00
2022-09-02T06:07:09.077Z,100.00
2022-09-02T06:09:41.003Z,100.00
2022-09-02T06:12:09.342Z,100.00
2022-09-02T06:14:38.061Z,100.00
2022-09-02T06:17:07.256Z,100.00
2022-09-02T06:19:35.594Z,100.00
2022-09-02T06:22:05.383Z,100.00
2022-09-02T06:24:33.593Z,100.00
2022-09-02T06:27:01.906Z,100.00
2022-09-02T06:29:30.088Z,100.00
2022-09-02T06:31:58.800Z,100.00
2022-09-02T06:34:28.264Z,100.00
2022-09-02T06:36:57.610Z,100.00
2022-09-02T06:39:26.900Z,100.00
2022-09-02T06:41:55.776Z,100.00
2022-09-02T06:44:23.829Z,100.00
2022-09-02T06:46:57.762Z,100.00
2022-09-02T06:49:28.468Z,100.00
2022-09-02T06:51:57.432Z,100.00
2022-09-02T06:54:25.702Z,100.00
2022-09-02T06:56:53.551Z,100.00
2022-09-02T06:59:22.522Z,100.00
2022-09-02T07:01:51.301Z,100.00
2022-09-02T07:04:37.279Z,100.00
2022-09-02T07:07:08.402Z,100.00
2022-09-02T07:09:36.300Z,100.00
2022-09-02T07:12:05.731Z,100.00
2022-09-02T07:14:37.896Z,100.00
2022-09-02T07:17:05.954Z,100.00
2022-09-02T07:19:33.796Z,100.00
2022-09-02T07:22:01.816Z,100.00
2022-09-02T07:24:31.068Z,100.00
2022-09-02T07:26:58.814Z,100.00
2022-09-02T07:29:26.614Z,100.00
2022-09-02T07:31:54.401Z,100.00
2022-09-02T07:34:22.612Z,100.00
2022-09-02T07:36:50.494Z,100.00
2022-09-02T07:39:19.857Z,100.00
2022-09-02T07:41:51.836Z,100.00
2022-09-02T07:44:21.476Z,100.00
2022-09-02T07:46:49.291Z,100.00
2022-09-02T07:49:22.054Z,100.00
2022-09-02T07:51:52.167Z,100.00
2022-09-02T07:54:22.275Z,100.00
2022-09-02T07:56:51.420Z,100.00
2022-09-02T07:59:19.963Z,100.00
2022-09-02T08:01:48.878Z,100.00
2022-09-02T08:04:18.692Z,100.00
2022-09-02T08:06:47.029Z,100.00
2022-09-02T08:09:14.882Z,100.00
2022-09-02T08:11:45.181Z,100.00
2022-09-02T08:14:18.122Z,100.00
2022-09-02T08:16:47.238Z,100.00
2022-09-02T08:19:15.551Z,100.00
2022-09-02T08:21:43.311Z,100.00
2022-09-02T08:24:11.133Z,100.00
2022-09-02T08:26:39.013Z,100.00
2022-09-02T08:29:07.384Z,100.00
2022-09-02T08:31:38.812Z,100.00
2022-09-02T08:34:06.989Z,100.00
2022-09-02T08:36:34.873Z,100.00
2022-09-02T08:39:04.123Z,100.00
2022-09-02T08:41:38.454Z,100.00
2022-09-02T08:44:07.876Z,100.00
2022-09-02T08:46:37.194Z,100.00
2022-09-02T08:49:08.807Z,100.00
2022-09-02T08:51:42.816Z,100.00
2022-09-02T08:54:18.126Z,100.00
2022-09-02T08:56:46.010Z,100.00
2022-09-02T08:59:15.120Z,100.00
2022-09-02T09:01:49.722Z,100.00
2022-09-02T09:04:22.868Z,100.00
2022-09-02T09:07:12.564Z,100.00
2022-09-02T09:09:50.607Z,100.00
2022-09-02T09:12:30.968Z,100.00
2022-09-02T09:15:06.482Z,100.00
2022-09-02T09:17:44.196Z,100.00
2022-09-02T09:20:19.753Z,100.00
2022-09-02T09:22:50.787Z,100.00
2022-09-02T09:25:19.564Z,94.46
2022-09-02T09:27:47.300Z,91.50
2022-09-02T09:30:15.847Z,86.67
2022-09-02T09:32:48.797Z,85.45
2022-09-02T09:35:18.271Z,81.62
2022-09-02T09:37:48.093Z,76.32
2022-09-02T09:40:38.415Z,67.26
2022-09-02T09:43:16.162Z,75.78
2022-09-02T09:45:45.796Z,76.71
2022-09-02T09:48:25.932Z,69.66
2022-09-02T09:51:13.284Z,65.49
2022-09-02T09:53:41.190Z,69.85
2022-09-02T09:56:30.358Z,64.70
2022-09-02T09:58:58.164Z,66.03
2022-09-02T10:01:29.842Z,66.96
2022-09-02T10:04:01.368Z,69.55
2022-09-02T10:06:39.375Z,64.55
2022-09-02T10:09:26.117Z,64.72
2022-09-02T10:11:57.879Z,69.29
2022-09-02T10:14:29.176Z,62.65
2022-09-02T10:17:05.620Z,65.13
2022-09-02T10:19:42.913Z,63.09
2022-09-02T10:23:00.039Z,51.00
2022-09-02T10:25:33.779Z,53.66
2022-09-02T10:28:10.230Z,47.62
2022-09-02T10:30:45.810Z,52.56
2022-09-02T10:33:25.365Z,52.01
2022-09-02T10:36:00.490Z,47.87
2022-09-02T10:38:41.352Z,49.52
2022-09-02T10:41:27.492Z,49.95
2022-09-02T10:44:06.904Z,47.32
2022-09-02T10:46:42.565Z,46.57
2022-09-02T10:49:20.465Z,41.92
2022-09-02T10:51:58.401Z,38.29
2022-09-02T10:54:40.596Z,46.11
2022-09-02T10:57:13.472Z,52.65
2022-09-02T10:59:44.572Z,48.44
2022-09-02T11:02:16.707Z,48.94
2022-09-02T11:04:49.810Z,47.13
2022-09-02T11:07:25.944Z,50.91
2022-09-02T11:09:58.289Z,46.08
2022-09-02T11:12:32.099Z,46.31
2022-09-02T11:15:07.598Z,45.29
2022-09-02T11:17:41.657Z,42.76
2022-09-02T11:20:16.327Z,44.59
2022-09-02T11:22:56.219Z,43.58
2022-09-02T11:25:26.997Z,46.51
2022-09-02T11:28:05.967Z,42.54
2022-09-02T11:30:43.144Z,44.34
2022-09-02T11:33:17.282Z,46.80
2022-09-02T11:35:45.721Z,41.69
2022-09-02T11:38:31.383Z,40.62
2022-09-02T11:41:36.056Z,39.74
2022-09-02T11:44:22.468Z,40.60
2022-09-02T11:47:25.082Z,43.34
2022-09-02T11:50:14.387Z,47.57
2022-09-02T11:52:59.002Z,44.77
2022-09-02T11:55:35.319Z,46.89
2022-09-02T11:58:04.079Z,42.04
2022-09-02T12:00:36.570Z,44.02
2022-09-02T12:03:40.928Z,44.59
2022-09-02T12:06:14.287Z,41.02
2022-09-02T12:09:03.824Z,41.84
2022-09-02T12:11:53.204Z,52.49
2022-09-02T12:15:06.531Z,48.16
2022-09-02T12:17:41.327Z,48.88
2022-09-02T12:20:11.525Z,45.34
2022-09-02T12:22:41.792Z,45.52
2022-09-02T12:25:40.402Z,39.79
2022-09-02T12:28:19.012Z,38.26
2022-09-02T12:31:15.434Z,42.66
2022-09-02T12:33:45.195Z,42.26
2022-09-02T12:36:46.722Z,43.10
2022-09-02T12:39:53.231Z,43.81
2022-09-02T12:42:27.766Z,40.02
2022-09-02T12:45:06.804Z,41.79
2022-09-02T12:47:49.014Z,44.45
2022-09-02T12:50:24.988Z,43.47
2022-09-02T12:52:54.985Z,39.85
2022-09-02T12:55:26.239Z,36.51
2022-09-02T12:57:57.052Z,37.41
2022-09-02T13:00:35.613Z,36.12
2022-09-02T13:03:19.173Z,36.81
2022-09-02T13:05:56.725Z,39.95
2022-09-02T13:09:01.434Z,41.59
2022-09-02T13:12:05.637Z,43.95
2022-09-02T13:14:58.068Z,42.92
2022-09-02T13:17:46.515Z,42.58
2022-09-02T13:20:50.254Z,42.66
2022-09-02T13:24:14.747Z,38.42
2022-09-02T13:27:11.934Z,47.35
2022-09-02T13:30:03.006Z,49.81
2022-09-02T13:32:34.057Z,38.91
2022-09-02T13:35:05.161Z,45.26
2022-09-02T13:37:36.738Z,41.28
2022-09-02T13:40:08.799Z,41.53
2022-09-02T13:42:37.295Z,45.52
2022-09-02T13:45:14.586Z,40.32
2022-09-02T13:47:48.155Z,43.17
2022-09-02T13:50:18.857Z,41.91
2022-09-02T13:55:43.595Z,40.29
2022-09-02T13:58:23.661Z,40.42
2022-09-02T14:00:51.524Z,40.14
2022-09-02T14:03:22.259Z,40.53
2022-09-02T14:05:53.090Z,46.88
2022-09-02T14:08:24.157Z,47.43
2022-09-02T14:10:53.870Z,50.65
2022-09-02T14:13:23.402Z,55.37
2022-09-02T14:15:51.202Z,44.31
2022-09-02T14:18:22.119Z,39.75
2022-09-02T14:20:59.626Z,42.53
2022-09-02T14:23:29.278Z,39.57
2022-09-02T14:25:59.270Z,38.70
2022-09-02T14:28:29.315Z,44.60
2022-09-02T14:31:00.598Z,43.12
2022-09-02T14:33:39.928Z,41.47
2022-09-02T14:36:09.918Z,45.29
2022-09-02T14:38:50.023Z,53.31
2022-09-02T14:41:23.067Z,52.55
2022-09-02T14:43:52.973Z,46.22
2022-09-02T14:46:28.965Z,50.47
2022-09-02T14:49:02.981Z,56.76
2022-09-02T14:51:37.835Z,61.02
2022-09-02T14:54:06.956Z,63.53
2022-09-02T14:56:49.993Z,66.61
2022-09-02T14:59:18.273Z,70.25
2022-09-02T15:01:48.149Z,71.30
2022-09-02T15:04:18.664Z,69.85
2022-09-02T15:06:47.601Z,72.06
2022-09-02T15:09:16.787Z,70.28
2022-09-02T15:11:48.836Z,72.12
2022-09-02T15:14:16.660Z,76.66
2022-09-02T15:16:44.430Z,75.43
2022-09-02T15:19:12.207Z,72.21
2022-09-02T15:21:41.490Z,71.23
2022-09-02T15:24:09.290Z,76.08
2022-09-02T15:26:37.067Z,78.51
2022-09-02T15:29:05.185Z,72.79
2022-09-02T15:31:33.098Z,65.28
2022-09-02T15:34:01.430Z,57.90
2022-09-02T15:36:29.276Z,53.28
2022-09-02T15:38:58.424Z,53.32
2022-09-02T15:41:27.529Z,53.76
2022-09-02T15:43:55.405Z,56.58
2022-09-02T15:46:26.578Z,65.59
2022-09-02T15:48:57.912Z,74.80
2022-09-02T15:51:29.707Z,78.44
2022-09-02T15:54:00.376Z,77.32
2022-09-02T15:56:29.739Z,80.42
2022-09-02T15:58:58.961Z,74.90
2022-09-02T16:01:27.759Z,77.89
2022-09-02T16:03:56.985Z,74.15
2022-09-02T16:06:25.358Z,71.57
2022-09-02T16:08:53.382Z,72.95
2022-09-02T16:11:22.877Z,73.27
2022-09-02T16:13:50.917Z,70.62
2022-09-02T16:16:19.414Z,68.58
2022-09-02T16:18:51.398Z,68.41
2022-09-02T16:21:19.533Z,69.34
2022-09-02T16:23:49.530Z,68.74
2022-09-02T16:26:24.945Z,70.27
2022-09-02T16:28:55.543Z,70.80
2022-09-02T16:31:25.292Z,70.86
2022-09-02T16:33:54.241Z,71.31
2022-09-02T16:36:22.457Z,75.73
2022-09-02T16:38:50.231Z,73.61
2022-09-02T16:41:27.244Z,80.54
2022-09-02T16:43:55.520Z,77.71
2022-09-02T16:46:23.394Z,81.58
2022-09-02T16:48:51.252Z,83.15
2022-09-02T16:51:19.397Z,84.18
2022-09-02T16:53:47.312Z,84.81
2022-09-02T16:56:17.082Z,87.21
2022-09-02T16:58:46.254Z,89.98
2022-09-02T17:01:14.547Z,91.67
2022-09-02T17:03:42.963Z,92.61
2022-09-02T17:06:10.748Z,95.47
2022-09-02T17:08:38.546Z,99.51
2022-09-02T17:11:19.944Z,97.92
2022-09-02T17:13:50.543Z,100.00
2022-09-02T17:16:19.050Z,100.00
2022-09-02T17:18:46.894Z,100.00
2022-09-02T17:21:20.268Z,100.00
2022-09-02T17:23:48.492Z,100.00
2022-09-02T17:26:17.339Z,100.00
2022-09-02T17:28:47.976Z,100.00
2022-09-02T17:31:25.947Z,100.00
2022-09-02T17:33:55.298Z,100.00
2022-09-02T17:36:26.033Z,100.00
2022-09-02T17:38:56.953Z,100.00
2022-09-02T17:41:42.623Z,100.00
2022-09-02T17:44:10.763Z,100.00
2022-09-02T17:46:39.903Z,100.00
2022-09-02T17:49:16.949Z,100.00
2022-09-02T17:51:45.297Z,100.00
2022-09-02T17:54:14.300Z,100.00
2022-09-02T17:57:03.748Z,100.00
2022-09-02T17:59:41.641Z,100.00
2022-09-02T18:02:37.469Z,100.00
2022-09-02T18:05:16.593Z,100.00
2022-09-02T18:07:51.138Z,100.00
2022-09-02T18:10:18.976Z,100.00
2022-09-02T18:12:47.169Z,100.00
2022-09-02T18:15:18.579Z,100.00
2022-09-02T18:17:51.577Z,100.00
2022-09-02T18:20:27.976Z,100.00
2022-09-02T18:23:15.531Z,100.00
2022-09-02T18:25:58.951Z,100.00
2022-09-02T18:28:42.078Z,100.00
2022-09-02T18:31:21.882Z,100.00
2022-09-02T18:34:04.399Z,100.00
2022-09-02T18:36:39.192Z,100.00
2022-09-02T18:39:21.471Z,100.00
2022-09-02T18:42:03.205Z,100.00
2022-09-02T18:44:39.126Z,100.00
2022-09-02T18:47:11.101Z,100.00
2022-09-02T18:49:40.527Z,100.00
2022-09-02T18:52:11.178Z,100.00
2022-09-02T18:54:46.394Z,100.00
2022-09-02T18:57:14.643Z,100.00
2022-09-02T18:59:48.567Z,100.00
2022-09-02T19:02:24.833Z,100.00
2022-09-02T19:04:54.644Z,100.00
2022-09-02T19:07:39.653Z,100.00
2022-09-02T19:10:09.047Z,100.00
2022-09-02T19:12:39.198Z,100.00
2022-09-02T19:15:09.513Z,100.00
2022-09-02T19:17:41.363Z,100.00
2022-09-02T19:20:11.018Z,100.00
2022-09-02T19:22:43.327Z,100.00
2022-09-02T19:25:14.194Z,100.00
2022-09-02T19:27:44.737Z,100.00
2022-09-02T19:30:14.823Z,100.00
2022-09-02T19:32:46.330Z,100.00
2022-09-02T19:35:18.253Z,100.00
2022-09-02T19:37:47.130Z,100.00
2022-09-02T19:40:20.067Z,100.00
2022-09-02T19:42:49.110Z,100.00
2022-09-02T19:45:16.983Z,100.00
2022-09-02T19:48:06.027Z,100.00
2022-09-02T19:50:34.105Z,100.00
2022-09-02T19:53:01.926Z,100.00
2022-09-02T19:55:29.757Z,100.00
2022-09-02T19:57:59.920Z,100.00
2022-09-02T20:00:27.904Z,100.00
2022-09-02T20:02:56.144Z,100.00
2022-09-02T20:05:25.115Z,100.00
2022-09-02T20:07:54.902Z,100.00
2022-09-02T20:10:27.651Z,100.00
2022-09-02T20:12:56.059Z,100.00
2022-09-02T20:15:23.835Z,100.00
2022-09-02T20:17:51.564Z,100.00
2022-09-02T20:20:22.476Z,100.00
2022-09-02T20:22:55.222Z,100.00
2022-09-02T20:25:35.782Z,100.00
2022-09-02T20:28:13.983Z,100.00
2022-09-02T20:30:46.420Z,100.00
2022-09-02T20:33:19.487Z,100.00
2022-09-02T20:36:12.095Z,100.00
2022-09-02T20:38:58.720Z,100.00
2022-09-02T20:41:36.238Z,100.00
2022-09-02T20:44:20.209Z,100.00
2022-09-02T20:47:08.093Z,100.00
2022-09-02T20:49:55.810Z,100.00
2022-09-02T20:52:31.423Z,100.00
2022-09-02T20:55:07.415Z,100.00
2022-09-02T20:58:13.035Z,100.00
2022-09-02T21:00:49.194Z,100.00
2022-09-02T21:03:17.848Z,100.00
2022-09-02T21:05:53.097Z,100.00
2022-09-02T21:08:28.388Z,100.00
2022-09-02T21:11:00.049Z,100.00
2022-09-02T21:13:38.347Z,100.00
2022-09-02T21:16:13.088Z,100.00
2022-09-02T21:18:57.752Z,100.00
2022-09-02T21:21:31.391Z,100.00
2022-09-02T21:24:04.557Z,100.00
2022-09-02T21:26:43.012Z,100.00
2022-09-02T21:29:20.895Z,100.00
2022-09-02T21:31:53.484Z,100.00
2022-09-02T21:34:27.406Z,100.00
2022-09-02T21:36:56.728Z,100.00
2022-09-02T21:39:28.198Z,100.00
2022-09-02T21:42:09.317Z,100.00
2022-09-02T21:44:50.331Z,100.00
2022-09-02T21:47:22.975Z,100.00
2022-09-02T21:50:10.888Z,100.00
2022-09-02T21:52:51.387Z,100.00
2022-09-02T21:55:35.315Z,100.00
2022-09-02T21:58:20.172Z,100.00
2022-09-02T22:00:55.669Z,100.00
2022-09-02T22:03:39.982Z,100.00
2022-09-02T22:06:13.608Z,100.00
2022-09-02T22:08:47.066Z,100.00
2022-09-02T22:11:23.235Z,100.00
2022-09-02T22:13:50.956Z,100.00
2022-09-02T22:16:32.722Z,100.00
2022-09-02T22:19:02.727Z,100.00
2022-09-02T22:21:37.976Z,100.00
2022-09-02T22:24:06.782Z,100.00
2022-09-02T22:26:41.566Z,100.00
2022-09-02T22:29:18.086Z,100.00
2022-09-02T22:31:54.059Z,100.00
2022-09-02T22:34:23.596Z,100.00
2022-09-02T22:37:00.554Z,100.00
2022-09-02T22:39:38.209Z,100.00
2022-09-02T22:42:17.902Z,100.00
2022-09-02T22:45:09.752Z,100.00
2022-09-02T22:48:01.819Z,100.00
2022-09-02T22:50:52.708Z,100.00
2022-09-02T22:53:20.463Z,100.00
2022-09-02T22:55:58.926Z,100.00
2022-09-02T22:59:11.064Z,100.00
2022-09-02T23:01:53.744Z,100.00
2022-09-02T23:04:35.333Z,100.00
2022-09-02T23:07:05.156Z,100.00
2022-09-02T23:09:34.312Z,100.00
2022-09-02T23:12:14.151Z,100.00
2022-09-02T23:14:51.382Z,100.00
2022-09-02T23:17:34.679Z,100.00
2022-09-02T23:20:14.678Z,100.00
2022-09-02T23:23:03.291Z,100.00
2022-09-02T23:25:47.558Z,100.00
2022-09-02T23:28:19.025Z,100.00
2022-09-02T23:31:01.242Z,100.00
2022-09-02T23:33:51.276Z,100.00
2022-09-02T23:36:35.078Z,100.00
2022-09-02T23:39:24.116Z,100.00
2022-09-02T23:41:53.390Z,100.00
2022-09-02T23:44:22.255Z,100.00
2022-09-02T23:47:00.974Z,100.00
2022-09-02T23:49:38.933Z,100.00
2022-09-02T23:52:24.443Z,100.00
2022-09-02T23:55:04.447Z,100.00
2022-09-02T23:58:00.477Z,100.00
